createdAt,value
2022-08-28T00:00:37.829Z,10.60
2022-08-28T00:03:05.765Z,9.40
2022-08-28T00:05:33.133Z,9.48
2022-08-28T00:08:00.458Z,10.75
2022-08-28T00:10:27.871Z,9.57
2022-08-28T00:12:58.237Z,10.52
2022-08-28T00:15:34.059Z,10.10
2022-08-28T00:18:01.208Z,9.45
2022-08-28T00:20:28.757Z,10.20
2022-08-28T00:22:56.427Z,9.35
2022-08-28T00:25:26.215Z,8.32
2022-08-28T00:27:57.363Z,8.43
2022-08-28T00:30:32.142Z,9.43
2022-08-28T00:33:06.501Z,9.35
2022-08-28T00:35:33.577Z,8.15
2022-08-28T00:38:00.931Z,8.55
2022-08-28T00:40:32.892Z,9.60
2022-08-28T00:43:04.453Z,10.55
2022-08-28T00:45:38.714Z,8.98
2022-08-28T00:48:06.519Z,9.00
2022-08-28T00:50:56.758Z,8.80
2022-08-28T00:53:29.914Z,9.60
2022-08-28T00:56:00.050Z,8.50
2022-08-28T00:58:26.750Z,7.72
2022-08-28T01:00:53.384Z,8.57
2022-08-28T01:03:20.030Z,9.25
2022-08-28T01:05:51.919Z,8.18
2022-08-28T01:08:18.720Z,9.10
2022-08-28T01:10:49.806Z,9.27
2022-08-28T01:13:18.130Z,8.18
2022-08-28T01:15:45.501Z,8.27
2022-08-28T01:18:16.257Z,9.20
2022-08-28T01:20:49.317Z,9.57
2022-08-28T01:23:45.806Z,9.45
2022-08-28T01:26:13.329Z,8.00
2022-08-28T01:28:40.893Z,7.88
2022-08-28T01:31:11.280Z,7.90
2022-08-28T01:33:39.314Z,7.80
2022-08-28T01:36:10.452Z,7.72
2022-08-28T01:38:38.993Z,9.25
2022-08-28T01:41:06.161Z,11.30
2022-08-28T01:43:32.969Z,9.55
2022-08-28T01:46:02.602Z,9.90
2022-08-28T01:48:31.528Z,9.98
2022-08-28T01:50:58.720Z,9.35
2022-08-28T01:53:32.711Z,9.60
2022-08-28T01:56:02.310Z,10.50
2022-08-28T01:58:36.061Z,8.53
2022-08-28T02:01:08.577Z,10.32
2022-08-28T02:03:35.281Z,9.50
2022-08-28T02:06:02.023Z,9.48
2022-08-28T02:08:28.661Z,9.73
2022-08-28T02:10:55.292Z,8.82
2022-08-28T02:13:22.382Z,9.90
2022-08-28T02:15:52.501Z,10.55
2022-08-28T02:18:19.223Z,11.30
2022-08-28T02:20:46.679Z,9.45
2022-08-28T02:23:13.956Z,10.43
2022-08-28T02:25:40.969Z,10.57
2022-08-28T02:28:09.193Z,9.88
2022-08-28T02:30:37.032Z,10.00
2022-08-28T02:33:04.274Z,9.98
2022-08-28T02:35:31.356Z,11.40
2022-08-28T02:37:58.658Z,11.30
2022-08-28T02:40:27.648Z,11.20
2022-08-28T02:42:54.395Z,10.20
2022-08-28T02:45:21.219Z,10.20
2022-08-28T02:47:48.186Z,10.10
2022-08-28T02:50:18.923Z,11.10
2022-08-28T02:52:46.539Z,10.10
2022-08-28T02:55:17.476Z,10.23
2022-08-28T02:57:44.913Z,9.65
2022-08-28T03:00:16.912Z,9.40
2022-08-28T03:02:45.826Z,10.18
2022-08-28T03:05:15.000Z,9.57
2022-08-28T03:07:42.717Z,9.32
2022-08-28T03:10:10.782Z,10.18
2022-08-28T03:12:38.286Z,11.43
2022-08-28T03:15:06.375Z,11.20
2022-08-28T03:17:33.311Z,10.18
2022-08-28T03:20:00.355Z,10.93
2022-08-28T03:22:45.839Z,9.85
2022-08-28T03:25:12.671Z,11.02
2022-08-28T03:27:39.821Z,9.60
2022-08-28T03:30:08.108Z,10.38
2022-08-28T03:32:35.112Z,11.05
2022-08-28T03:35:02.096Z,10.68
2022-08-28T03:37:28.838Z,11.10
2022-08-28T03:39:55.629Z,10.80
2022-08-28T03:42:22.733Z,10.45
2022-08-28T03:44:49.536Z,11.02
2022-08-28T03:47:16.665Z,10.48
2022-08-28T03:49:45.388Z,10.38
2022-08-28T03:52:12.760Z,10.50
2022-08-28T03:54:39.568Z,10.18
2022-08-28T03:57:07.216Z,11.57
2022-08-28T03:59:35.505Z,10.82
2022-08-28T04:02:02.232Z,10.60
2022-08-28T04:04:28.867Z,11.07
2022-08-28T04:06:55.523Z,10.93
2022-08-28T04:09:22.168Z,9.98
2022-08-28T04:11:48.849Z,9.95
2022-08-28T04:14:15.481Z,10.18
2022-08-28T04:16:42.366Z,11.43
2022-08-28T04:19:09.275Z,10.55
2022-08-28T04:21:35.927Z,12.10
2022-08-28T04:24:05.771Z,10.60
2022-08-28T04:26:36.738Z,11.27
2022-08-28T04:29:05.061Z,10.00
2022-08-28T04:31:32.837Z,10.80
2022-08-28T04:34:05.547Z,11.50
2022-08-28T04:36:33.935Z,12.63
2022-08-28T04:39:01.609Z,12.27
2022-08-28T04:41:29.050Z,12.95
2022-08-28T04:43:57.194Z,13.80
2022-08-28T04:46:25.031Z,13.43
2022-08-28T04:48:52.338Z,13.98
2022-08-28T04:51:20.648Z,13.80
2022-08-28T04:53:47.437Z,14.30
2022-08-28T04:56:15.363Z,13.95
2022-08-28T04:58:43.822Z,13.35
2022-08-28T05:01:18.806Z,13.05
2022-08-28T05:03:47.949Z,15.07
2022-08-28T05:06:16.318Z,14.00
2022-08-28T05:08:43.585Z,13.20
2022-08-28T05:11:32.828Z,13.70
2022-08-28T05:14:04.405Z,14.07
2022-08-28T05:16:31.898Z,14.90
2022-08-28T05:19:02.658Z,14.65
2022-08-28T05:21:29.332Z,15.57
2022-08-28T05:23:57.704Z,13.90
2022-08-28T05:26:27.145Z,14.43
2022-08-28T05:28:57.748Z,13.57
2022-08-28T05:31:26.024Z,14.90
2022-08-28T05:33:54.000Z,14.18
2022-08-28T05:36:23.394Z,14.20
2022-08-28T05:38:56.503Z,15.40
2022-08-28T05:41:25.903Z,14.65
2022-08-28T05:43:54.125Z,14.88
2022-08-28T05:46:22.456Z,13.75
2022-08-28T05:48:49.469Z,15.32
2022-08-28T05:51:20.253Z,15.48
2022-08-28T05:53:50.300Z,13.90
2022-08-28T05:56:22.005Z,13.57
